Flight Track Log - Related Links

Times and Time Zones

All times are in EDT time to prevent confusion due to time zone crossing. See the N315L flight status page for this flight to view local times or setup timezone preferences in your user account.

Time Position Orientation Groundspeed Altitude Reporting Facility
EDT Latitude Longitude Course Direction KTS MPH feet Rate Location/Type
Sun 07:32:36 PM 40.7383 -79.8706 123° Southeast 115 132 4,100  Level Cleveland Center
Sun 07:33:36 PM 40.7317 -79.8322 103° East 126 145 4,900 700 Climbing Cleveland Center
Sun 07:34:36 PM 40.7231 -79.7914 106° East 121 139 5,500 700 Climbing Cleveland Center
Sun 07:35:36 PM 40.7144 -79.7531 106° East 116 133 6,300 700 Climbing Cleveland Center
Sun 07:36:36 PM 40.7039 -79.7150 110° East 110 127 6,900 550 Climbing Cleveland Center
Sun 07:37:00 PM 40.6583 -79.6833 123° Southeast  Level FlightAware Approximate
Sun 07:37:36 PM 40.6931 -79.6711 108° East 110 127 7,400  Level Cleveland Center
Sun 07:38:36 PM 40.6803 -79.6250 110° East 120 138 7,800 450 Climbing Cleveland Center
Sun 07:39:36 PM 40.6694 -79.5786 107° East 126 145 8,300 500 Climbing Cleveland Center
Sun 07:40:36 PM 40.6564 -79.5322 110° East 132 152 8,800 350 Climbing Cleveland Center
Sun 07:41:36 PM 40.6394 -79.4858 116° Southeast 132 152 9,000 100 Climbing Cleveland Center
Sun 07:42:36 PM 40.6119 -79.4425 130° Southeast 138 159 9,000  Level Cleveland Center
Sun 07:43:36 PM 40.5906 -79.3964 121° Southeast 149 171 9,000  Level Cleveland Center
Sun 07:44:36 PM 40.5669 -79.3478 123° Southeast 149 171 9,000  Level Cleveland Center
Sun 07:45:36 PM 40.5414 -79.3017 126° Southeast 149 171 9,000  Level Cleveland Center
Sun 07:46:36 PM 40.5119 -79.2558 130° Southeast 149 171 9,000  Level Cleveland Center
Sun 07:47:36 PM 40.4842 -79.2072 127° Southeast 156 180 9,000  Level Cleveland Center
Sun 07:48:36 PM 40.4564 -79.1614 129° Southeast 156 180 9,000  Level Cleveland Center
Sun 07:49:36 PM 40.4267 -79.1158 131° Southeast 156 180 9,000  Level Cleveland Center
Sun 07:50:36 PM 40.4031 -79.0700 124° Southeast 156 180 9,000  Level Cleveland Center
Sun 07:51:36 PM 40.3794 -79.0158 120° Southeast 156 180 9,000  Level Cleveland Center
Sun 07:52:36 PM 40.3600 -78.9619 115° Southeast 156 180 9,000  Level Cleveland Center
Sun 07:53:36 PM 40.3425 -78.9106 114° Southeast 156 180 9,000  Level Cleveland Center
Sun 07:54:36 PM 40.3250 -78.8539 112° Southeast 156 180 9,000  Level Cleveland Center
Sun 07:55:36 PM 40.3097 -78.7997 110° East 156 180 9,000  Level Cleveland Center
Sun 07:56:36 PM 40.2878 -78.7431 117° Southeast 162 186 9,000  Level Cleveland Center
Sun 07:57:36 PM 40.2661 -78.6919 119° Southeast 162 186 9,000  Level Cleveland Center
Sun 07:58:36 PM 40.2403 -78.6439 125° Southeast 157 181 9,000  Level Cleveland Center
Sun 07:59:36 PM 40.2125 -78.5983 129° Southeast 162 186 9,000  Level Cleveland Center
Sun 08:01:36 PM 40.1628 -78.5075 126° Southeast 162 186 9,000  Level Cleveland Center
Sun 08:02:36 PM 40.1350 -78.4622 129° Southeast 162 186 9,000  Level Cleveland Center
Sun 08:03:36 PM 40.1092 -78.4142 125° Southeast 167 192 9,000  Level Cleveland Center
Sun 08:04:36 PM 40.0853 -78.3633 122° Southeast 167 192 9,000  Level Cleveland Center
Sun 08:05:36 PM 40.0653 -78.3125 117° Southeast 162 186 9,000  Level Cleveland Center
Sun 08:06:36 PM 40.0475 -78.2561 112° Southeast 162 186 9,000  Level Cleveland Center
Sun 08:07:36 PM 40.0317 -78.1969 109° East 162 186 9,000  Level Cleveland Center
Sun 08:08:36 PM 40.0139 -78.1408 112° Southeast 162 186 9,000  Level Cleveland Center
Sun 08:10:41 PM 39.9781 -78.0261 112° Southeast 164 189 9,000  Level New York Center
Sun 08:11:40 PM 39.9561 -77.9725 118° Southeast 164 189 9,000  Level New York Center
Sun 08:12:41 PM 39.9364 -77.9217 117° Southeast 164 189 9,000  Level New York Center
Sun 08:13:41 PM 39.9444 -77.8575 81° East 158 182 9,000  Level New York Center
Sun 08:14:40 PM 39.9503 -77.7931 83° East 168 193 9,000  Level New York Center
Sun 08:15:41 PM 39.9497 -77.7333 91° East 168 193 9,000  Level New York Center
Sun 08:17:40 PM 39.9500 -77.6000 90° East 174 200 9,000  Level Potomac TRACON
Sun 08:18:46 PM 39.9333 -77.5333 108° East 172 198 9,000  Level Potomac TRACON
Sun 08:19:46 PM 39.9333 -77.4833 90° East 171 197 9,000  Level Potomac TRACON
Sun 08:20:46 PM 39.9333 -77.4167 90° East 170 196 9,000  Level Potomac TRACON
Sun 08:21:40 PM 39.9167 -77.3667 113° Southeast 156 180 9,000 -105 Level Potomac TRACON
Sun 08:22:40 PM 39.8833 -77.3167 131° Southeast 159 183 8,800 -381 Descending Potomac TRACON
Sun 08:23:46 PM 39.8500 -77.2833 142° Southeast 169 194 8,200 -550 Descending Potomac TRACON
Sun 08:24:40 PM 39.8167 -77.2500 142° Southeast 168 193 7,700 -579 Descending Potomac TRACON
Sun 08:25:40 PM 39.7667 -77.2167 153° Southeast 172 198 7,100 -347 Descending Potomac TRACON
Sun 08:26:41 PM 39.7333 -77.2000 159° South 157 181 7,000 -50 Descending Potomac TRACON
Sun 08:27:41 PM 39.7000 -77.1667 142° Southeast 143 165 7,000  Level Potomac TRACON
Sun 08:28:41 PM 39.6500 -77.1500 166° South 149 171 7,000  Level Potomac TRACON
Sun 08:29:42 PM 39.6167 -77.1167 142° Southeast 148 170 7,000 -298 Level Potomac TRACON
Sun 08:30:42 PM 39.5833 -77.0833 142° Southeast 169 194 6,400 -526 Descending Potomac TRACON
Sun 08:31:36 PM 39.5500 -77.0500 142° Southeast 170 196 6,000 -446 Descending Potomac TRACON
Sun 08:32:43 PM 39.5167 -77.0000 131° Southeast 173 199 5,500 -472 Descending Potomac TRACON
Sun 08:33:43 PM 39.4833 -76.9667 142° Southeast 166 191 5,000 -600 Descending Potomac TRACON
Sun 08:34:43 PM 39.4333 -76.9667 180° South 166 191 4,300 -500 Descending Potomac TRACON
Sun 08:35:43 PM 39.3833 -76.9667 180° South 145 167 4,000 -150 Descending Potomac TRACON
Sun 08:36:43 PM 39.3500 -76.9667 180° South 134 154 4,000  Level Potomac TRACON
Sun 08:37:44 PM 39.3167 -76.9667 180° South 136 157 4,000  Level Potomac TRACON
Sun 08:38:44 PM 39.2667 -76.9667 180° South 140 161 4,000  Level Potomac TRACON
Sun 08:39:44 PM 39.2333 -76.9500 159° South 137 158 4,000  Level Potomac TRACON
Sun 08:40:39 PM 39.2000 -76.9500 180° South 131 151 4,000  Level Potomac TRACON
Sun 08:41:39 PM 39.1667 -76.9500 180° South 130 150 4,000  Level Potomac TRACON
Sun 08:42:39 PM 39.1333 -76.9500 180° South 135 155 4,000  Level Potomac TRACON
Sun 08:43:39 PM 39.1000 -76.9500 180° South 131 151 4,000 -105 Level Potomac TRACON
Sun 08:44:33 PM 39.0667 -76.9500 180° South 130 150 3,800 -684 Descending Potomac TRACON
Sun 08:45:33 PM 39.0167 -76.9500 180° South 149 171 2,700 -1,250 Descending Potomac TRACON
Sun 08:46:33 PM 38.9833 -76.9333 159° South 168 193 1,300 -900 Descending Potomac TRACON
Sun 08:47:33 PM 38.9500 -76.9167 159° South 125 144 900 -450 Descending Potomac TRACON
Sun 08:48:33 PM 38.9667 -76.9167 360° North 92 106 400 -500 Descending Potomac TRACON
Sun 08:50:00 PM 38.9806 -76.9223 North  Level Estimated
Sun 08:57:00 PM 38.9806 -76.9223 North  Level Estimated
Sun 08:58:00 PM 38.9806 -76.9223 North  Level Estimated
Sun 08:59:00 PM 38.9806 -76.9223 North  Level Estimated

Login

Don't have an account? Register now (free) for customized features, flight alerts, and more!